sensor_id;sensor_type;location;lat;lon;timestamp;P1;durP1;ratioP1;P2;durP2;ratioP2
25721;SDS011;13578;53.450;15.496;2023-05-24T00:00:48;7.72;;;3.30;;
25721;SDS011;13578;53.450;15.496;2023-05-24T00:03:52;11.50;;;3.75;;
25721;SDS011;13578;53.450;15.496;2023-05-24T00:06:53;8.60;;;3.50;;
25721;SDS011;13578;53.450;15.496;2023-05-24T00:09:53;17.30;;;3.25;;
25721;SDS011;13578;53.450;15.496;2023-05-24T00:12:54;14.63;;;3.67;;
25721;SDS011;13578;53.450;15.496;2023-05-24T00:15:55;18.33;;;4.68;;
25721;SDS011;13578;53.450;15.496;2023-05-24T00:18:56;12.82;;;4.35;;
25721;SDS011;13578;53.450;15.496;2023-05-24T00:21:58;10.52;;;3.53;;
25721;SDS011;13578;53.450;15.496;2023-05-24T00:24:58;16.80;;;4.53;;
25721;SDS011;13578;53.450;15.496;2023-05-24T00:27:59;17.55;;;4.18;;
25721;SDS011;13578;53.450;15.496;2023-05-24T00:31:00;16.30;;;4.75;;
25721;SDS011;13578;53.450;15.496;2023-05-24T00:34:01;13.30;;;4.53;;
25721;SDS011;13578;53.450;15.496;2023-05-24T00:37:01;14.70;;;4.75;;
25721;SDS011;13578;53.450;15.496;2023-05-24T00:40:02;13.07;;;4.53;;
25721;SDS011;13578;53.450;15.496;2023-05-24T00:43:04;13.30;;;4.32;;
25721;SDS011;13578;53.450;15.496;2023-05-24T00:46:15;18.60;;;5.43;;
25721;SDS011;13578;53.450;15.496;2023-05-24T00:49:16;14.70;;;4.55;;
25721;SDS011;13578;53.450;15.496;2023-05-24T00:52:17;15.55;;;3.75;;
25721;SDS011;13578;53.450;15.496;2023-05-24T00:55:18;12.05;;;4.43;;
25721;SDS011;13578;53.450;15.496;2023-05-24T00:58:19;12.63;;;4.35;;
25721;SDS011;13578;53.450;15.496;2023-05-24T01:01:22;15.68;;;4.03;;
25721;SDS011;13578;53.450;15.496;2023-05-24T01:04:29;12.55;;;3.80;;
25721;SDS011;13578;53.450;15.496;2023-05-24T01:07:35;10.73;;;3.80;;
25721;SDS011;13578;53.450;15.496;2023-05-24T01:11:00;16.88;;;4.65;;
25721;SDS011;13578;53.450;15.496;2023-05-24T01:14:10;17.52;;;5.45;;
25721;SDS011;13578;53.450;15.496;2023-05-24T01:17:22;12.55;;;4.63;;
25721;SDS011;13578;53.450;15.496;2023-05-24T01:20:32;13.00;;;4.80;;
25721;SDS011;13578;53.450;15.496;2023-05-24T01:29:59;15.82;;;4.82;;
25721;SDS011;13578;53.450;15.496;2023-05-24T01:33:02;20.23;;;4.22;;
25721;SDS011;13578;53.450;15.496;2023-05-24T01:36:03;14.43;;;5.47;;
25721;SDS011;13578;53.450;15.496;2023-05-24T01:39:04;12.18;;;4.57;;
25721;SDS011;13578;53.450;15.496;2023-05-24T01:42:10;24.65;;;5.25;;
25721;SDS011;13578;53.450;15.496;2023-05-24T01:45:34;12.70;;;4.43;;
25721;SDS011;13578;53.450;15.496;2023-05-24T01:51:57;10.93;;;4.63;;
25721;SDS011;13578;53.450;15.496;2023-05-24T01:55:11;9.43;;;3.85;;
25721;SDS011;13578;53.450;15.496;2023-05-24T01:58:16;7.18;;;4.38;;
25721;SDS011;13578;53.450;15.496;2023-05-24T02:01:20;10.45;;;4.25;;
25721;SDS011;13578;53.450;15.496;2023-05-24T02:04:20;17.00;;;4.65;;
25721;SDS011;13578;53.450;15.496;2023-05-24T02:07:21;8.43;;;3.58;;
25721;SDS011;13578;53.450;15.496;2023-05-24T02:10:22;17.90;;;4.60;;
25721;SDS011;13578;53.450;15.496;2023-05-24T02:13:22;10.80;;;4.25;;
25721;SDS011;13578;53.450;15.496;2023-05-24T02:16:23;12.48;;;4.40;;
25721;SDS011;13578;53.450;15.496;2023-05-24T02:19:25;7.38;;;4.00;;
25721;SDS011;13578;53.450;15.496;2023-05-24T02:22:26;11.65;;;5.07;;
25721;SDS011;13578;53.450;15.496;2023-05-24T02:25:27;15.20;;;5.10;;
25721;SDS011;13578;53.450;15.496;2023-05-24T02:28:28;10.40;;;4.10;;
25721;SDS011;13578;53.450;15.496;2023-05-24T02:31:31;16.58;;;5.47;;
25721;SDS011;13578;53.450;15.496;2023-05-24T02:34:31;12.32;;;5.15;;
25721;SDS011;13578;53.450;15.496;2023-05-24T02:37:32;10.35;;;4.45;;
25721;SDS011;13578;53.450;15.496;2023-05-24T02:40:33;13.95;;;5.50;;
25721;SDS011;13578;53.450;15.496;2023-05-24T02:43:34;12.93;;;5.55;;
25721;SDS011;13578;53.450;15.496;2023-05-24T02:46:34;10.38;;;4.50;;
25721;SDS011;13578;53.450;15.496;2023-05-24T02:49:35;8.57;;;4.80;;
25721;SDS011;13578;53.450;15.496;2023-05-24T02:52:36;15.75;;;4.88;;
25721;SDS011;13578;53.450;15.496;2023-05-24T02:55:36;14.38;;;6.35;;
25721;SDS011;13578;53.450;15.496;2023-05-24T02:58:37;9.68;;;4.50;;
25721;SDS011;13578;53.450;15.496;2023-05-24T03:01:40;13.70;;;4.45;;
25721;SDS011;13578;53.450;15.496;2023-05-24T03:04:40;11.95;;;4.30;;
25721;SDS011;13578;53.450;15.496;2023-05-24T03:07:41;6.50;;;3.70;;
25721;SDS011;13578;53.450;15.496;2023-05-24T03:10:42;6.78;;;3.90;;
25721;SDS011;13578;53.450;15.496;2023-05-24T03:13:42;17.40;;;4.38;;
25721;SDS011;13578;53.450;15.496;2023-05-24T03:16:43;10.80;;;4.70;;
25721;SDS011;13578;53.450;15.496;2023-05-24T03:19:44;11.20;;;4.45;;
25721;SDS011;13578;53.450;15.496;2023-05-24T03:22:44;8.45;;;5.40;;
25721;SDS011;13578;53.450;15.496;2023-05-24T03:25:45;7.20;;;4.38;;
25721;SDS011;13578;53.450;15.496;2023-05-24T03:28:46;7.45;;;4.47;;
25721;SDS011;13578;53.450;15.496;2023-05-24T03:31:46;12.15;;;4.63;;
25721;SDS011;13578;53.450;15.496;2023-05-24T03:34:47;6.63;;;4.93;;
25721;SDS011;13578;53.450;15.496;2023-05-24T03:37:49;12.60;;;5.35;;
25721;SDS011;13578;53.450;15.496;2023-05-24T03:40:49;8.13;;;4.53;;
25721;SDS011;13578;53.450;15.496;2023-05-24T03:43:50;7.25;;;3.78;;
25721;SDS011;13578;53.450;15.496;2023-05-24T03:46:51;6.85;;;4.10;;
25721;SDS011;13578;53.450;15.496;2023-05-24T03:49:52;6.53;;;4.32;;
25721;SDS011;13578;53.450;15.496;2023-05-24T03:52:53;7.50;;;4.07;;
25721;SDS011;13578;53.450;15.496;2023-05-24T03:55:53;5.63;;;3.35;;
25721;SDS011;13578;53.450;15.496;2023-05-24T03:58:54;5.85;;;3.15;;
25721;SDS011;13578;53.450;15.496;2023-05-24T04:01:59;7.90;;;3.25;;
25721;SDS011;13578;53.450;15.496;2023-05-24T04:05:00;8.50;;;3.15;;
25721;SDS011;13578;53.450;15.496;2023-05-24T04:08:00;6.70;;;2.80;;
25721;SDS011;13578;53.450;15.496;2023-05-24T04:11:01;4.70;;;3.15;;
25721;SDS011;13578;53.450;15.496;2023-05-24T04:14:02;4.20;;;2.65;;
25721;SDS011;13578;53.450;15.496;2023-05-24T04:17:03;2.97;;;2.10;;
25721;SDS011;13578;53.450;15.496;2023-05-24T04:20:04;4.70;;;2.40;;
25721;SDS011;13578;53.450;15.496;2023-05-24T04:23:06;2.17;;;1.98;;
25721;SDS011;13578;53.450;15.496;2023-05-24T04:26:06;5.80;;;2.08;;
25721;SDS011;13578;53.450;15.496;2023-05-24T04:29:09;4.63;;;1.88;;
25721;SDS011;13578;53.450;15.496;2023-05-24T04:32:09;2.10;;;1.50;;
25721;SDS011;13578;53.450;15.496;2023-05-24T04:35:13;2.97;;;2.00;;
25721;SDS011;13578;53.450;15.496;2023-05-24T04:38:15;3.10;;;1.77;;
25721;SDS011;13578;53.450;15.496;2023-05-24T04:41:16;2.67;;;1.52;;
25721;SDS011;13578;53.450;15.496;2023-05-24T04:44:17;1.83;;;1.63;;
25721;SDS011;13578;53.450;15.496;2023-05-24T04:47:17;1.55;;;1.42;;
25721;SDS011;13578;53.450;15.496;2023-05-24T04:50:18;2.15;;;1.70;;
25721;SDS011;13578;53.450;15.496;2023-05-24T04:53:19;1.98;;;1.73;;
25721;SDS011;13578;53.450;15.496;2023-05-24T04:56:20;4.28;;;1.35;;
25721;SDS011;13578;53.450;15.496;2023-05-24T04:59:22;2.17;;;1.70;;
25721;SDS011;13578;53.450;15.496;2023-05-24T05:02:22;3.45;;;1.70;;
25721;SDS011;13578;53.450;15.496;2023-05-24T05:05:25;4.72;;;2.17;;
25721;SDS011;13578;53.450;15.496;2023-05-24T05:08:26;1.98;;;1.70;;
25721;SDS011;13578;53.450;15.496;2023-05-24T05:11:26;3.78;;;1.65;;
25721;SDS011;13578;53.450;15.496;2023-05-24T05:14:27;1.88;;;1.67;;
25721;SDS011;13578;53.450;15.496;2023-05-24T05:17:28;3.83;;;1.45;;
25721;SDS011;13578;53.450;15.496;2023-05-24T05:20:29;1.98;;;1.45;;
25721;SDS011;13578;53.450;15.496;2023-05-24T05:23:30;1.70;;;1.60;;
25721;SDS011;13578;53.450;15.496;2023-05-24T05:26:30;4.70;;;1.85;;
25721;SDS011;13578;53.450;15.496;2023-05-24T05:29:31;2.13;;;1.50;;
25721;SDS011;13578;53.450;15.496;2023-05-24T05:32:32;8.70;;;2.28;;
25721;SDS011;13578;53.450;15.496;2023-05-24T05:35:33;3.65;;;1.73;;
25721;SDS011;13578;53.450;15.496;2023-05-24T05:38:33;3.67;;;1.77;;
25721;SDS011;13578;53.450;15.496;2023-05-24T05:41:40;2.22;;;1.60;;
25721;SDS011;13578;53.450;15.496;2023-05-24T05:44:45;8.60;;;2.33;;
25721;SDS011;13578;53.450;15.496;2023-05-24T05:47:45;5.63;;;1.98;;
25721;SDS011;13578;53.450;15.496;2023-05-24T05:50:46;6.63;;;2.28;;
25721;SDS011;13578;53.450;15.496;2023-05-24T05:53:46;10.60;;;2.03;;
25721;SDS011;13578;53.450;15.496;2023-05-24T05:56:47;4.30;;;2.13;;
25721;SDS011;13578;53.450;15.496;2023-05-24T05:59:47;3.25;;;2.55;;
25721;SDS011;13578;53.450;15.496;2023-05-24T06:02:48;6.13;;;2.00;;
25721;SDS011;13578;53.450;15.496;2023-05-24T06:05:49;5.63;;;2.17;;
25721;SDS011;13578;53.450;15.496;2023-05-24T06:08:50;4.70;;;2.53;;
25721;SDS011;13578;53.450;15.496;2023-05-24T06:11:50;4.40;;;2.67;;
25721;SDS011;13578;53.450;15.496;2023-05-24T06:14:51;5.85;;;2.83;;
25721;SDS011;13578;53.450;15.496;2023-05-24T06:17:52;7.18;;;3.45;;
25721;SDS011;13578;53.450;15.496;2023-05-24T06:20:54;6.10;;;3.60;;
25721;SDS011;13578;53.450;15.496;2023-05-24T06:23:54;5.57;;;3.17;;
25721;SDS011;13578;53.450;15.496;2023-05-24T06:26:56;6.40;;;2.92;;
25721;SDS011;13578;53.450;15.496;2023-05-24T06:29:57;5.40;;;3.00;;
25721;SDS011;13578;53.450;15.496;2023-05-24T06:32:58;6.10;;;2.88;;
25721;SDS011;13578;53.450;15.496;2023-05-24T06:35:59;5.88;;;2.95;;
25721;SDS011;13578;53.450;15.496;2023-05-24T06:39:01;8.43;;;3.67;;
25721;SDS011;13578;53.450;15.496;2023-05-24T06:42:01;8.80;;;4.03;;
25721;SDS011;13578;53.450;15.496;2023-05-24T06:45:02;7.53;;;3.33;;
25721;SDS011;13578;53.450;15.496;2023-05-24T06:48:03;6.88;;;3.03;;
25721;SDS011;13578;53.450;15.496;2023-05-24T06:51:04;8.77;;;3.58;;
25721;SDS011;13578;53.450;15.496;2023-05-24T06:54:05;11.82;;;3.80;;
25721;SDS011;13578;53.450;15.496;2023-05-24T06:57:05;10.30;;;3.85;;
25721;SDS011;13578;53.450;15.496;2023-05-24T07:00:06;7.95;;;3.90;;
25721;SDS011;13578;53.450;15.496;2023-05-24T07:03:14;4.93;;;3.20;;
25721;SDS011;13578;53.450;15.496;2023-05-24T07:06:15;8.82;;;3.65;;
25721;SDS011;13578;53.450;15.496;2023-05-24T07:09:16;8.50;;;3.58;;
25721;SDS011;13578;53.450;15.496;2023-05-24T07:12:17;10.20;;;3.53;;
25721;SDS011;13578;53.450;15.496;2023-05-24T07:15:18;10.05;;;3.78;;
25721;SDS011;13578;53.450;15.496;2023-05-24T07:18:19;9.75;;;3.60;;
25721;SDS011;13578;53.450;15.496;2023-05-24T07:21:19;9.40;;;3.70;;
25721;SDS011;13578;53.450;15.496;2023-05-24T07:24:20;8.82;;;3.88;;
25721;SDS011;13578;53.450;15.496;2023-05-24T07:27:21;8.25;;;4.50;;
25721;SDS011;13578;53.450;15.496;2023-05-24T07:30:22;10.93;;;3.90;;
25721;SDS011;13578;53.450;15.496;2023-05-24T07:33:23;7.82;;;4.20;;
25721;SDS011;13578;53.450;15.496;2023-05-24T07:36:23;16.45;;;4.60;;
25721;SDS011;13578;53.450;15.496;2023-05-24T07:39:25;11.60;;;4.72;;
25721;SDS011;13578;53.450;15.496;2023-05-24T07:42:26;8.13;;;4.57;;
25721;SDS011;13578;53.450;15.496;2023-05-24T07:45:27;19.55;;;4.75;;
25721;SDS011;13578;53.450;15.496;2023-05-24T07:48:27;8.38;;;4.50;;
25721;SDS011;13578;53.450;15.496;2023-05-24T07:51:28;15.75;;;5.60;;
25721;SDS011;13578;53.450;15.496;2023-05-24T07:54:29;10.77;;;4.25;;
25721;SDS011;13578;53.450;15.496;2023-05-24T07:57:29;9.57;;;4.43;;
25721;SDS011;13578;53.450;15.496;2023-05-24T08:00:30;19.50;;;5.30;;
25721;SDS011;13578;53.450;15.496;2023-05-24T08:03:33;11.95;;;4.90;;
25721;SDS011;13578;53.450;15.496;2023-05-24T08:06:33;14.38;;;5.88;;
25721;SDS011;13578;53.450;15.496;2023-05-24T08:09:34;10.05;;;4.72;;
25721;SDS011;13578;53.450;15.496;2023-05-24T08:12:37;9.73;;;5.47;;
25721;SDS011;13578;53.450;15.496;2023-05-24T08:15:37;13.65;;;4.82;;
25721;SDS011;13578;53.450;15.496;2023-05-24T08:18:38;15.73;;;4.95;;
25721;SDS011;13578;53.450;15.496;2023-05-24T08:21:39;11.15;;;5.38;;
25721;SDS011;13578;53.450;15.496;2023-05-24T08:24:41;10.85;;;5.72;;
25721;SDS011;13578;53.450;15.496;2023-05-24T08:27:42;14.60;;;5.82;;
25721;SDS011;13578;53.450;15.496;2023-05-24T08:30:42;15.98;;;6.55;;
25721;SDS011;13578;53.450;15.496;2023-05-24T08:33:43;14.07;;;7.30;;
25721;SDS011;13578;53.450;15.496;2023-05-24T08:36:44;15.73;;;6.45;;
25721;SDS011;13578;53.450;15.496;2023-05-24T08:39:45;17.13;;;6.75;;
25721;SDS011;13578;53.450;15.496;2023-05-24T08:42:45;13.32;;;6.05;;
25721;SDS011;13578;53.450;15.496;2023-05-24T08:45:49;16.50;;;6.15;;
25721;SDS011;13578;53.450;15.496;2023-05-24T08:48:52;16.75;;;7.15;;
25721;SDS011;13578;53.450;15.496;2023-05-24T08:51:54;13.65;;;6.47;;
25721;SDS011;13578;53.450;15.496;2023-05-24T08:54:54;21.13;;;7.05;;
25721;SDS011;13578;53.450;15.496;2023-05-24T08:57:56;19.05;;;7.35;;
25721;SDS011;13578;53.450;15.496;2023-05-24T09:00:57;18.92;;;8.13;;
25721;SDS011;13578;53.450;15.496;2023-05-24T09:03:59;19.38;;;7.63;;
25721;SDS011;13578;53.450;15.496;2023-05-24T09:07:02;17.65;;;8.48;;
25721;SDS011;13578;53.450;15.496;2023-05-24T09:10:03;26.75;;;8.55;;
25721;SDS011;13578;53.450;15.496;2023-05-24T09:13:05;18.15;;;8.80;;
25721;SDS011;13578;53.450;15.496;2023-05-24T09:16:07;18.83;;;8.80;;
25721;SDS011;13578;53.450;15.496;2023-05-24T09:19:07;12.82;;;8.35;;
25721;SDS011;13578;53.450;15.496;2023-05-24T09:22:08;32.03;;;11.10;;
25721;SDS011;13578;53.450;15.496;2023-05-24T09:25:11;20.55;;;9.77;;
25721;SDS011;13578;53.450;15.496;2023-05-24T09:28:14;18.70;;;9.85;;
25721;SDS011;13578;53.450;15.496;2023-05-24T09:31:17;28.38;;;10.85;;
25721;SDS011;13578;53.450;15.496;2023-05-24T09:34:17;21.73;;;9.45;;
25721;SDS011;13578;53.450;15.496;2023-05-24T09:37:19;14.52;;;8.15;;
25721;SDS011;13578;53.450;15.496;2023-05-24T09:40:22;25.95;;;9.75;;
25721;SDS011;13578;53.450;15.496;2023-05-24T09:43:25;23.35;;;9.93;;
25721;SDS011;13578;53.450;15.496;2023-05-24T09:46:25;18.60;;;8.63;;
25721;SDS011;13578;53.450;15.496;2023-05-24T09:49:28;17.15;;;9.20;;
25721;SDS011;13578;53.450;15.496;2023-05-24T09:52:28;20.00;;;8.82;;
25721;SDS011;13578;53.450;15.496;2023-05-24T09:55:29;19.90;;;8.52;;
25721;SDS011;13578;53.450;15.496;2023-05-24T09:58:35;19.58;;;8.73;;
25721;SDS011;13578;53.450;15.496;2023-05-24T10:01:36;17.35;;;8.90;;
25721;SDS011;13578;53.450;15.496;2023-05-24T10:04:38;14.43;;;7.93;;
25721;SDS011;13578;53.450;15.496;2023-05-24T10:07:39;12.93;;;8.32;;
25721;SDS011;13578;53.450;15.496;2023-05-24T10:10:41;16.45;;;8.40;;
25721;SDS011;13578;53.450;15.496;2023-05-24T10:13:42;20.23;;;8.13;;
25721;SDS011;13578;53.450;15.496;2023-05-24T10:16:43;22.67;;;8.90;;
25721;SDS011;13578;53.450;15.496;2023-05-24T10:19:44;23.15;;;9.23;;
25721;SDS011;13578;53.450;15.496;2023-05-24T10:22:45;17.45;;;8.00;;
25721;SDS011;13578;53.450;15.496;2023-05-24T10:25:50;24.20;;;6.22;;
25721;SDS011;13578;53.450;15.496;2023-05-24T10:28:56;26.77;;;7.38;;
25721;SDS011;13578;53.450;15.496;2023-05-24T10:32:04;15.57;;;7.03;;
25721;SDS011;13578;53.450;15.496;2023-05-24T10:35:05;18.70;;;7.40;;
25721;SDS011;13578;53.450;15.496;2023-05-24T10:38:07;11.13;;;6.35;;
25721;SDS011;13578;53.450;15.496;2023-05-24T10:41:08;13.13;;;5.93;;
25721;SDS011;13578;53.450;15.496;2023-05-24T10:44:12;22.83;;;7.80;;
25721;SDS011;13578;53.450;15.496;2023-05-24T10:47:19;19.88;;;6.93;;
25721;SDS011;13578;53.450;15.496;2023-05-24T10:50:20;21.23;;;7.65;;
25721;SDS011;13578;53.450;15.496;2023-05-24T10:53:21;18.00;;;8.00;;
25721;SDS011;13578;53.450;15.496;2023-05-24T10:56:25;26.13;;;8.82;;
25721;SDS011;13578;53.450;15.496;2023-05-24T10:59:29;18.63;;;8.38;;
25721;SDS011;13578;53.450;15.496;2023-05-24T11:02:38;20.50;;;8.88;;
25721;SDS011;13578;53.450;15.496;2023-05-24T11:08:46;14.50;;;7.65;;
25721;SDS011;13578;53.450;15.496;2023-05-24T11:11:53;21.08;;;9.35;;
25721;SDS011;13578;53.450;15.496;2023-05-24T11:14:55;14.55;;;8.23;;
25721;SDS011;13578;53.450;15.496;2023-05-24T11:21:08;20.75;;;8.95;;
25721;SDS011;13578;53.450;15.496;2023-05-24T11:24:09;25.45;;;8.98;;
25721;SDS011;13578;53.450;15.496;2023-05-24T11:27:10;21.20;;;8.55;;
25721;SDS011;13578;53.450;15.496;2023-05-24T11:30:13;25.42;;;8.95;;
25721;SDS011;13578;53.450;15.496;2023-05-24T11:33:18;22.42;;;9.45;;
25721;SDS011;13578;53.450;15.496;2023-05-24T11:36:21;20.15;;;8.57;;
25721;SDS011;13578;53.450;15.496;2023-05-24T11:39:22;13.32;;;7.72;;
25721;SDS011;13578;53.450;15.496;2023-05-24T11:42:27;13.43;;;8.00;;
25721;SDS011;13578;53.450;15.496;2023-05-24T11:45:28;18.52;;;8.48;;
25721;SDS011;13578;53.450;15.496;2023-05-24T11:48:29;16.90;;;8.48;;
25721;SDS011;13578;53.450;15.496;2023-05-24T11:51:31;18.77;;;8.32;;
25721;SDS011;13578;53.450;15.496;2023-05-24T11:54:33;23.98;;;10.77;;
25721;SDS011;13578;53.450;15.496;2023-05-24T11:57:36;28.77;;;14.52;;
25721;SDS011;13578;53.450;15.496;2023-05-24T12:00:41;36.90;;;15.25;;
25721;SDS011;13578;53.450;15.496;2023-05-24T12:03:42;42.08;;;21.40;;
25721;SDS011;13578;53.450;15.496;2023-05-24T12:06:43;21.63;;;10.45;;
25721;SDS011;13578;53.450;15.496;2023-05-24T12:09:44;40.55;;;18.02;;
25721;SDS011;13578;53.450;15.496;2023-05-24T12:12:45;30.15;;;15.27;;
25721;SDS011;13578;53.450;15.496;2023-05-24T12:15:48;28.02;;;11.50;;
25721;SDS011;13578;53.450;15.496;2023-05-24T12:18:50;38.78;;;16.33;;
25721;SDS011;13578;53.450;15.496;2023-05-24T12:21:55;27.70;;;13.40;;
25721;SDS011;13578;53.450;15.496;2023-05-24T12:24:56;19.30;;;9.57;;
25721;SDS011;13578;53.450;15.496;2023-05-24T12:27:57;26.92;;;11.38;;
25721;SDS011;13578;53.450;15.496;2023-05-24T12:30:58;21.02;;;9.25;;
25721;SDS011;13578;53.450;15.496;2023-05-24T12:33:58;29.27;;;13.80;;
25721;SDS011;13578;53.450;15.496;2023-05-24T12:36:59;41.90;;;15.25;;
25721;SDS011;13578;53.450;15.496;2023-05-24T12:40:01;29.00;;;11.57;;
25721;SDS011;13578;53.450;15.496;2023-05-24T12:43:04;29.73;;;16.45;;
25721;SDS011;13578;53.450;15.496;2023-05-24T12:46:04;25.52;;;13.70;;
25721;SDS011;13578;53.450;15.496;2023-05-24T12:49:05;36.42;;;16.90;;
25721;SDS011;13578;53.450;15.496;2023-05-24T12:52:06;45.03;;;17.33;;
25721;SDS011;13578;53.450;15.496;2023-05-24T12:55:07;32.40;;;17.25;;
25721;SDS011;13578;53.450;15.496;2023-05-24T12:58:08;36.45;;;16.88;;
25721;SDS011;13578;53.450;15.496;2023-05-24T13:01:09;22.20;;;11.80;;
25721;SDS011;13578;53.450;15.496;2023-05-24T13:04:09;24.25;;;9.68;;
25721;SDS011;13578;53.450;15.496;2023-05-24T13:07:10;20.02;;;8.57;;
25721;SDS011;13578;53.450;15.496;2023-05-24T13:10:11;17.02;;;6.95;;
25721;SDS011;13578;53.450;15.496;2023-05-24T13:13:12;19.95;;;8.25;;
25721;SDS011;13578;53.450;15.496;2023-05-24T13:16:13;17.17;;;9.85;;
25721;SDS011;13578;53.450;15.496;2023-05-24T13:19:14;18.55;;;7.40;;
25721;SDS011;13578;53.450;15.496;2023-05-24T13:22:15;18.23;;;6.85;;
25721;SDS011;13578;53.450;15.496;2023-05-24T13:25:16;17.15;;;6.22;;
25721;SDS011;13578;53.450;15.496;2023-05-24T13:28:17;23.15;;;7.55;;
25721;SDS011;13578;53.450;15.496;2023-05-24T13:31:17;30.10;;;9.23;;
25721;SDS011;13578;53.450;15.496;2023-05-24T13:34:21;20.20;;;8.90;;
25721;SDS011;13578;53.450;15.496;2023-05-24T13:37:26;22.35;;;7.60;;
25721;SDS011;13578;53.450;15.496;2023-05-24T13:40:26;16.02;;;7.90;;
25721;SDS011;13578;53.450;15.496;2023-05-24T13:43:27;15.48;;;6.90;;
25721;SDS011;13578;53.450;15.496;2023-05-24T13:46:28;22.10;;;7.15;;
25721;SDS011;13578;53.450;15.496;2023-05-24T13:49:29;12.07;;;6.15;;
25721;SDS011;13578;53.450;15.496;2023-05-24T13:52:29;13.77;;;7.00;;
25721;SDS011;13578;53.450;15.496;2023-05-24T13:55:31;20.98;;;6.90;;
25721;SDS011;13578;53.450;15.496;2023-05-24T13:58:34;21.70;;;8.57;;
25721;SDS011;13578;53.450;15.496;2023-05-24T14:01:35;18.77;;;7.18;;
25721;SDS011;13578;53.450;15.496;2023-05-24T14:04:36;20.02;;;8.20;;
25721;SDS011;13578;53.450;15.496;2023-05-24T14:07:37;23.67;;;8.48;;
25721;SDS011;13578;53.450;15.496;2023-05-24T14:10:38;21.60;;;8.05;;
25721;SDS011;13578;53.450;15.496;2023-05-24T14:13:39;28.02;;;9.02;;
25721;SDS011;13578;53.450;15.496;2023-05-24T14:16:40;26.55;;;8.70;;
25721;SDS011;13578;53.450;15.496;2023-05-24T14:19:41;25.48;;;9.23;;
25721;SDS011;13578;53.450;15.496;2023-05-24T14:22:41;30.83;;;9.43;;
25721;SDS011;13578;53.450;15.496;2023-05-24T14:25:42;33.35;;;10.70;;
25721;SDS011;13578;53.450;15.496;2023-05-24T14:28:45;23.25;;;9.13;;
25721;SDS011;13578;53.450;15.496;2023-05-24T14:31:46;26.52;;;8.35;;
25721;SDS011;13578;53.450;15.496;2023-05-24T14:34:47;32.58;;;9.43;;
25721;SDS011;13578;53.450;15.496;2023-05-24T14:37:47;22.13;;;7.78;;
25721;SDS011;13578;53.450;15.496;2023-05-24T14:40:48;26.77;;;8.13;;
25721;SDS011;13578;53.450;15.496;2023-05-24T14:43:50;23.02;;;6.95;;
25721;SDS011;13578;53.450;15.496;2023-05-24T14:46:51;29.30;;;8.27;;
25721;SDS011;13578;53.450;15.496;2023-05-24T14:49:52;23.65;;;7.45;;
25721;SDS011;13578;53.450;15.496;2023-05-24T14:52:53;19.20;;;8.35;;
25721;SDS011;13578;53.450;15.496;2023-05-24T14:55:54;20.95;;;7.82;;
25721;SDS011;13578;53.450;15.496;2023-05-24T14:58:55;29.40;;;9.05;;
25721;SDS011;13578;53.450;15.496;2023-05-24T15:01:57;35.30;;;8.40;;
25721;SDS011;13578;53.450;15.496;2023-05-24T15:04:58;19.42;;;8.82;;
25721;SDS011;13578;53.450;15.496;2023-05-24T15:08:02;21.33;;;7.85;;
25721;SDS011;13578;53.450;15.496;2023-05-24T15:11:04;17.85;;;7.93;;
25721;SDS011;13578;53.450;15.496;2023-05-24T15:14:05;15.05;;;7.65;;
25721;SDS011;13578;53.450;15.496;2023-05-24T15:17:05;20.45;;;7.95;;
25721;SDS011;13578;53.450;15.496;2023-05-24T15:20:06;19.42;;;7.28;;
25721;SDS011;13578;53.450;15.496;2023-05-24T15:23:07;23.48;;;7.70;;
25721;SDS011;13578;53.450;15.496;2023-05-24T15:26:09;28.75;;;7.07;;
25721;SDS011;13578;53.450;15.496;2023-05-24T15:29:11;19.48;;;6.60;;
25721;SDS011;13578;53.450;15.496;2023-05-24T15:32:11;17.33;;;7.45;;
25721;SDS011;13578;53.450;15.496;2023-05-24T15:35:12;41.92;;;8.52;;
25721;SDS011;13578;53.450;15.496;2023-05-24T15:38:13;25.10;;;8.75;;
25721;SDS011;13578;53.450;15.496;2023-05-24T15:41:16;27.13;;;10.35;;
25721;SDS011;13578;53.450;15.496;2023-05-24T15:44:17;19.10;;;8.20;;
25721;SDS011;13578;53.450;15.496;2023-05-24T15:47:17;21.80;;;7.05;;
25721;SDS011;13578;53.450;15.496;2023-05-24T15:50:18;25.58;;;7.75;;
25721;SDS011;13578;53.450;15.496;2023-05-24T15:53:19;41.22;;;8.52;;
25721;SDS011;13578;53.450;15.496;2023-05-24T15:56:20;21.10;;;8.50;;
25721;SDS011;13578;53.450;15.496;2023-05-24T15:59:21;17.50;;;7.38;;
25721;SDS011;13578;53.450;15.496;2023-05-24T16:02:21;16.63;;;6.38;;
25721;SDS011;13578;53.450;15.496;2023-05-24T16:05:22;23.88;;;7.53;;
25721;SDS011;13578;53.450;15.496;2023-05-24T16:08:23;16.88;;;6.35;;
25721;SDS011;13578;53.450;15.496;2023-05-24T16:11:26;16.05;;;6.75;;
25721;SDS011;13578;53.450;15.496;2023-05-24T16:14:27;14.63;;;7.15;;
25721;SDS011;13578;53.450;15.496;2023-05-24T16:17:30;12.02;;;7.22;;
25721;SDS011;13578;53.450;15.496;2023-05-24T16:20:30;17.58;;;7.30;;
25721;SDS011;13578;53.450;15.496;2023-05-24T16:23:31;15.63;;;5.82;;
25721;SDS011;13578;53.450;15.496;2023-05-24T16:26:32;19.08;;;6.85;;
25721;SDS011;13578;53.450;15.496;2023-05-24T16:29:33;15.85;;;6.78;;
25721;SDS011;13578;53.450;15.496;2023-05-24T16:32:33;20.60;;;7.80;;
25721;SDS011;13578;53.450;15.496;2023-05-24T16:35:34;21.85;;;8.73;;
25721;SDS011;13578;53.450;15.496;2023-05-24T16:38:35;22.05;;;9.07;;
25721;SDS011;13578;53.450;15.496;2023-05-24T16:41:36;23.75;;;7.65;;
25721;SDS011;13578;53.450;15.496;2023-05-24T16:44:39;23.83;;;7.97;;
25721;SDS011;13578;53.450;15.496;2023-05-24T16:47:39;20.85;;;7.68;;
25721;SDS011;13578;53.450;15.496;2023-05-24T16:50:40;18.90;;;7.88;;
25721;SDS011;13578;53.450;15.496;2023-05-24T16:53:41;22.10;;;8.45;;
25721;SDS011;13578;53.450;15.496;2023-05-24T16:56:41;26.05;;;7.97;;
25721;SDS011;13578;53.450;15.496;2023-05-24T16:59:42;16.35;;;6.57;;
25721;SDS011;13578;53.450;15.496;2023-05-24T17:02:44;15.98;;;5.68;;
25721;SDS011;13578;53.450;15.496;2023-05-24T17:05:45;16.02;;;6.05;;
25721;SDS011;13578;53.450;15.496;2023-05-24T17:08:45;12.95;;;5.75;;
25721;SDS011;13578;53.450;15.496;2023-05-24T17:11:46;8.63;;;4.25;;
25721;SDS011;13578;53.450;15.496;2023-05-24T17:14:46;11.40;;;4.57;;
25721;SDS011;13578;53.450;15.496;2023-05-24T17:17:47;18.63;;;6.32;;
25721;SDS011;13578;53.450;15.496;2023-05-24T17:20:48;19.40;;;6.97;;
25721;SDS011;13578;53.450;15.496;2023-05-24T17:23:48;22.02;;;7.25;;
25721;SDS011;13578;53.450;15.496;2023-05-24T17:26:49;16.17;;;5.53;;
25721;SDS011;13578;53.450;15.496;2023-05-24T17:29:49;11.38;;;4.55;;
25721;SDS011;13578;53.450;15.496;2023-05-24T17:32:50;15.98;;;4.68;;
25721;SDS011;13578;53.450;15.496;2023-05-24T17:35:51;11.80;;;4.30;;
25721;SDS011;13578;53.450;15.496;2023-05-24T17:38:55;14.60;;;5.95;;
25721;SDS011;13578;53.450;15.496;2023-05-24T17:41:55;16.08;;;6.15;;
25721;SDS011;13578;53.450;15.496;2023-05-24T17:44:56;11.80;;;4.70;;
25721;SDS011;13578;53.450;15.496;2023-05-24T17:47:56;18.35;;;4.93;;
25721;SDS011;13578;53.450;15.496;2023-05-24T17:50:58;17.42;;;5.10;;
25721;SDS011;13578;53.450;15.496;2023-05-24T17:54:00;18.10;;;5.13;;
25721;SDS011;13578;53.450;15.496;2023-05-24T17:57:00;11.73;;;4.95;;
25721;SDS011;13578;53.450;15.496;2023-05-24T18:00:02;12.52;;;4.60;;